createdAt,value
2022-11-05T00:04:40.247Z,1015.5
2022-11-05T00:09:40.209Z,1015.5
2022-11-05T00:14:40.366Z,1015.6
2022-11-05T00:19:40.054Z,1015.6
2022-11-05T00:24:40.053Z,1015.7
2022-11-05T00:29:40.103Z,1015.8
2022-11-05T00:34:40.306Z,1015.8
2022-11-05T00:39:40.345Z,1015.8
2022-11-05T00:44:40.127Z,1015.9
2022-11-05T00:49:40.139Z,1015.9
2022-11-05T00:54:40.282Z,1015.9
2022-11-05T00:59:40.159Z,1016
2022-11-05T01:04:39.958Z,1016.1
2022-11-05T01:09:40.030Z,1016.1
2022-11-05T01:14:40.092Z,1016.2
2022-11-05T01:19:40.210Z,1016.2
2022-11-05T01:24:40.204Z,1016.2
2022-11-05T01:29:40.156Z,1016.1
2022-11-05T01:34:39.953Z,1016.2
2022-11-05T01:39:40.047Z,1016.3
2022-11-05T01:44:40.216Z,1016.3
2022-11-05T01:49:40.065Z,1016.2
2022-11-05T01:54:39.989Z,1016.2
2022-11-05T01:59:40.082Z,1016.2
2022-11-05T02:04:43.290Z,1016.2
2022-11-05T02:09:40.006Z,1016.1
2022-11-05T02:14:40.182Z,1016
2022-11-05T02:19:40.107Z,1015.8
2022-11-05T02:24:40.033Z,1015.8
2022-11-05T02:31:50.711Z,1015.8
2022-11-05T02:34:40.139Z,1015.9
2022-11-05T02:39:40.036Z,1015.9
2022-11-05T02:46:33.125Z,1016
2022-11-05T02:49:40.196Z,1016
2022-11-05T02:54:42.259Z,1016
2022-11-05T02:59:39.975Z,1016
2022-11-05T03:04:40.191Z,1016.1
2022-11-05T03:09:39.981Z,1016.1
2022-11-05T03:14:39.954Z,1016.1
2022-11-05T03:19:39.887Z,1016
2022-11-05T03:24:41.605Z,1016.1
2022-11-05T03:29:39.863Z,1016.2
2022-11-05T03:34:40.058Z,1016.2
2022-11-05T03:39:39.904Z,1016.1
2022-11-05T03:44:42.270Z,1016.1
2022-11-05T03:49:39.906Z,1016.1
2022-11-05T03:54:39.822Z,1016.1
2022-11-05T03:59:41.689Z,1016.2
2022-11-05T04:04:40.005Z,1016.2
2022-11-05T04:09:39.871Z,1016.2
2022-11-05T04:14:40.218Z,1016.3
2022-11-05T04:19:39.791Z,1016.3
2022-11-05T04:24:39.884Z,1016.3
2022-11-05T04:29:39.923Z,1016.3
2022-11-05T04:34:40.251Z,1016.3
2022-11-05T04:39:39.795Z,1016.3
2022-11-05T04:44:40.158Z,1016.3
2022-11-05T04:49:40.222Z,1016.2
2022-11-05T04:54:39.992Z,1016.2
2022-11-05T04:59:40.477Z,1016.3
2022-11-05T05:04:39.836Z,1016.3
2022-11-05T05:09:40.008Z,1016.3
2022-11-05T05:14:40.108Z,1016.3
2022-11-05T05:19:39.805Z,1016.4
2022-11-05T05:24:39.696Z,1016.3
2022-11-05T05:29:39.782Z,1016.3
2022-11-05T05:34:39.871Z,1016.4
2022-11-05T05:39:39.796Z,1016.4
2022-11-05T05:44:39.997Z,1016.5
2022-11-05T05:49:39.967Z,1016.5
2022-11-05T05:54:42.715Z,1016.6
2022-11-05T05:59:39.867Z,1016.6
2022-11-05T06:04:39.646Z,1016.7
2022-11-05T06:09:39.785Z,1016.7
2022-11-05T06:14:39.782Z,1016.8
2022-11-05T06:19:39.775Z,1016.8
2022-11-05T06:24:39.849Z,1016.9
2022-11-05T06:29:39.953Z,1016.9
2022-11-05T06:34:39.798Z,1016.8
2022-11-05T06:39:39.583Z,1016.8
2022-11-05T06:44:39.824Z,1016.9
2022-11-05T06:49:40.110Z,1016.8
2022-11-05T06:54:39.829Z,1016.9
2022-11-05T06:59:39.774Z,1016.9
2022-11-05T07:04:39.587Z,1016.9
2022-11-05T07:09:39.610Z,1016.9
2022-11-05T07:14:39.744Z,1016.9
2022-11-05T07:19:39.755Z,1016.9
2022-11-05T07:24:39.666Z,1017
2022-11-05T07:29:39.659Z,1017
2022-11-05T07:34:40.109Z,1017.1
2022-11-05T07:39:39.887Z,1017.1
2022-11-05T07:44:39.805Z,1017.1
2022-11-05T07:49:40.204Z,1017.2
2022-11-05T07:54:39.625Z,1017.2
2022-11-05T07:59:39.920Z,1017.2
2022-11-05T08:04:39.834Z,1017.2
2022-11-05T08:09:39.693Z,1017.2
2022-11-05T08:14:39.730Z,1017.2
2022-11-05T08:19:39.621Z,1017.2
2022-11-05T08:24:39.652Z,1017.1
2022-11-05T08:29:39.595Z,1017.1
2022-11-05T08:34:39.682Z,1017.1
2022-11-05T08:39:39.632Z,1017.2
2022-11-05T08:44:39.697Z,1017.2
2022-11-05T08:49:39.686Z,1017.3
2022-11-05T08:54:39.653Z,1017.3
2022-11-05T08:59:39.783Z,1017.3
2022-11-05T09:04:39.641Z,1017.4
2022-11-05T09:09:39.718Z,1017.3
2022-11-05T09:14:39.485Z,1017.3
2022-11-05T09:19:40.262Z,1017.3
2022-11-05T09:24:39.745Z,1017.2
2022-11-05T09:29:39.460Z,1017.3
2022-11-05T09:34:39.440Z,1017.3
2022-11-05T09:39:39.641Z,1017.3
2022-11-05T09:44:39.537Z,1017.3
2022-11-05T09:49:39.593Z,1017.4
2022-11-05T09:54:39.642Z,1017.4
2022-11-05T09:59:39.738Z,1017.4
2022-11-05T10:04:42.188Z,1017.5
2022-11-05T10:09:41.226Z,1017.4
2022-11-05T10:14:39.398Z,1017.4
2022-11-05T10:19:39.696Z,1017.4
2022-11-05T10:24:39.579Z,1017.4
2022-11-05T10:29:39.525Z,1017.5
2022-11-05T10:34:39.412Z,1017.5
2022-11-05T10:39:39.740Z,1017.5
2022-11-05T10:44:39.661Z,1017.5
2022-11-05T10:49:39.462Z,1017.5
2022-11-05T10:54:39.630Z,1017.5
2022-11-05T10:59:39.745Z,1017.5
2022-11-05T11:04:39.519Z,1017.5
2022-11-05T11:09:39.562Z,1017.4
2022-11-05T11:14:39.351Z,1017.5
2022-11-05T11:19:39.491Z,1017.5
2022-11-05T11:24:39.642Z,1017.5
2022-11-05T11:29:39.453Z,1017.5
2022-11-05T11:34:39.581Z,1017.5
2022-11-05T11:39:42.524Z,1017.4
2022-11-05T11:44:39.369Z,1017.4
2022-11-05T11:49:39.531Z,1017.3
2022-11-05T11:54:39.657Z,1017.3
2022-11-05T12:00:07.213Z,1017.3
2022-11-05T12:04:39.569Z,1017.4
2022-11-05T12:09:52.192Z,1017.3
2022-11-05T12:14:45.139Z,1017.3
2022-11-05T12:20:06.762Z,1017.3
2022-11-05T12:24:39.540Z,1017.2
2022-11-05T12:29:47.655Z,1017.2
2022-11-05T12:34:39.429Z,1017.1
2022-11-05T12:39:39.264Z,1017.1
2022-11-05T12:44:46.558Z,1017
2022-11-05T12:49:39.475Z,1017
2022-11-05T12:54:44.569Z,1017
2022-11-05T12:59:39.577Z,1016.9
2022-11-05T13:04:39.287Z,1016.9
2022-11-05T13:09:39.295Z,1016.8
2022-11-05T13:14:39.261Z,1016.7
2022-11-05T13:19:39.439Z,1016.6
2022-11-05T13:24:39.234Z,1016.6
2022-11-05T13:29:42.749Z,1016.6
2022-11-05T13:34:39.409Z,1016.6
2022-11-05T13:39:39.186Z,1016.5
2022-11-05T13:44:39.198Z,1016.5
2022-11-05T13:49:50.268Z,1016.5
2022-11-05T13:54:39.307Z,1016.5
2022-11-05T13:59:49.303Z,1016.6
2022-11-05T14:04:41.002Z,1016.6
2022-11-05T14:09:39.214Z,1016.6
2022-11-05T14:14:39.183Z,1016.6
2022-11-05T14:19:49.605Z,1016.5
2022-11-05T14:24:40.271Z,1016.5
2022-11-05T14:29:40.817Z,1016.6
2022-11-05T14:34:41.308Z,1016.5
2022-11-05T14:39:39.306Z,1016.5
2022-11-05T14:44:39.106Z,1016.5
2022-11-05T14:49:39.418Z,1016.6
2022-11-05T14:54:39.114Z,1016.6
2022-11-05T14:59:39.064Z,1016.5
2022-11-05T15:04:39.313Z,1016.5
2022-11-05T15:09:39.154Z,1016.4
2022-11-05T15:14:39.156Z,1016.4
2022-11-05T15:19:39.433Z,1016.4
2022-11-05T15:24:39.181Z,1016.3
2022-11-05T15:29:39.202Z,1016.3
2022-11-05T15:34:48.756Z,1016.2
2022-11-05T15:39:39.186Z,1016.3
2022-11-05T15:44:39.254Z,1016.2
2022-11-05T15:49:39.112Z,1016.2
2022-11-05T15:54:39.213Z,1016.2
2022-11-05T15:59:39.182Z,1016.2
2022-11-05T16:04:39.231Z,1016.2
2022-11-05T16:09:39.075Z,1016.2
2022-11-05T16:14:39.305Z,1016.2
2022-11-05T16:19:40.539Z,1016.1
2022-11-05T16:24:39.097Z,1016
2022-11-05T16:29:39.086Z,1016
2022-11-05T16:34:39.303Z,1016
2022-11-05T16:39:39.611Z,1016
2022-11-05T16:44:39.292Z,1016
2022-11-05T16:49:39.308Z,1016.1
2022-11-05T16:54:39.030Z,1016
2022-11-05T16:59:39.321Z,1016
2022-11-05T17:04:39.068Z,1016
2022-11-05T17:09:39.012Z,1015.9
2022-11-05T17:14:39.109Z,1015.9
2022-11-05T17:19:39.116Z,1015.9
2022-11-05T17:24:38.913Z,1015.9
2022-11-05T17:29:39.173Z,1016
2022-11-05T17:34:39.170Z,1016.1
2022-11-05T17:39:39.038Z,1016.1
2022-11-05T17:44:39.169Z,1016.2
2022-11-05T17:49:38.962Z,1016.3
2022-11-05T17:54:38.847Z,1016.2
2022-11-05T17:59:39.060Z,1016.3
2022-11-05T18:04:39.115Z,1016.3
2022-11-05T18:09:38.966Z,1016.3
2022-11-05T18:14:38.880Z,1016.2
2022-11-05T18:19:38.956Z,1016.1
2022-11-05T18:24:38.993Z,1016.1
2022-11-05T18:29:39.029Z,1016.2
2022-11-05T18:34:39.028Z,1016
2022-11-05T18:39:38.843Z,1016
2022-11-05T18:44:39.373Z,1015.9
2022-11-05T18:49:39.147Z,1015.8
2022-11-05T18:54:38.983Z,1015.8
2022-11-05T18:59:39.783Z,1015.7
2022-11-05T19:04:38.887Z,1015.6
2022-11-05T19:09:39.018Z,1015.5
2022-11-05T19:14:38.839Z,1015.4
2022-11-05T19:19:39.360Z,1015.3
2022-11-05T19:24:39.044Z,1015.3
2022-11-05T19:29:38.833Z,1015.4
2022-11-05T19:34:39.147Z,1015.4
2022-11-05T19:39:39.058Z,1015.3
2022-11-05T19:44:38.932Z,1015.4
2022-11-05T19:49:39.492Z,1015.3
2022-11-05T19:54:38.777Z,1015.2
2022-11-05T19:59:39.056Z,1015.1
2022-11-05T20:04:39.011Z,1015.1
2022-11-05T20:09:38.801Z,1015
2022-11-05T20:14:39.088Z,1015.1
2022-11-05T20:19:38.993Z,1015
2022-11-05T20:24:38.717Z,1015.1
2022-11-05T20:29:38.821Z,1015.1
2022-11-05T20:34:39.007Z,1015.1
2022-11-05T20:39:39.073Z,1015.1
2022-11-05T20:44:38.812Z,1015
2022-11-05T20:49:38.754Z,1015
2022-11-05T20:54:38.901Z,1015
2022-11-05T20:59:38.963Z,1015
2022-11-05T21:04:38.870Z,1015.2
2022-11-05T21:09:38.777Z,1015.3
2022-11-05T21:14:38.825Z,1015.2
2022-11-05T21:19:39.035Z,1015.2
2022-11-05T21:24:38.980Z,1015.1
2022-11-05T21:29:38.642Z,1015.1
2022-11-05T21:34:38.797Z,1015.1
2022-11-05T21:39:38.733Z,1015.1
2022-11-05T21:44:39.056Z,1015
2022-11-05T21:49:38.970Z,1015.1
2022-11-05T21:54:38.880Z,1014.9
2022-11-05T21:59:38.859Z,1014.9
2022-11-05T22:04:38.712Z,1014.9
2022-11-05T22:09:39.431Z,1014.8
2022-11-05T22:14:38.921Z,1014.8
2022-11-05T22:19:38.900Z,1014.8
2022-11-05T22:24:38.694Z,1014.7
2022-11-05T22:29:38.655Z,1014.6
2022-11-05T22:34:38.654Z,1014.8
2022-11-05T22:39:38.924Z,1014.9
2022-11-05T22:44:38.865Z,1014.8
2022-11-05T22:49:38.863Z,1014.7
2022-11-05T22:54:39.407Z,1014.6
2022-11-05T22:59:38.792Z,1014.5
2022-11-05T23:04:38.490Z,1014.6
2022-11-05T23:09:38.827Z,1014.6
2022-11-05T23:14:38.814Z,1014.5
2022-11-05T23:19:39.327Z,1014.3
2022-11-05T23:24:38.826Z,1014.4
2022-11-05T23:29:38.822Z,1014.3
2022-11-05T23:34:38.748Z,1014.3
2022-11-05T23:39:42.609Z,1014.3
2022-11-05T23:44:38.532Z,1014.1
2022-11-05T23:49:38.571Z,1014.1
2022-11-05T23:54:38.801Z,1014.2
2022-11-05T23:59:38.767Z,1014
